This is the latest recevied weather packets stored in our database for station/object W8MRL. If no packets are shown the sender has not sent any weather packets the latest 10 day(s).
| Time | Temp. | Humidity | Pressure | Rain* | Wind** | Luminosity | Snow |
|---|---|---|---|---|---|---|---|
| 1777860901 | 13.33° C | 58% | 1017.1 hPa | 0 mm | - | - | - |
| 1777860003 | 13.89° C | 57% | 1017 hPa | 0 mm | - | - | - |
| 1777859163 | 13.89° C | 55% | 1016.9 hPa | 0 mm | - | - | - |
| 1777858291 | 13.89° C | 54% | 1016.8 hPa | 0 mm | - | - | - |
| 1777857360 | 13.89° C | 53% | 1016.6 hPa | 0 mm | - | - | - |
| 1777856461 | 14.44° C | 51% | 1016.6 hPa | 0 mm | - | - | - |
| 1777855559 | 14.44° C | 50% | 1016.5 hPa | 0 mm | - | - | - |
| 1777854658 | 14.44° C | 49% | 1016.4 hPa | 0 mm | - | - | - |
| 1777853759 | 15° C | 48% | 1016.6 hPa | 0 mm | - | - | - |
| 1777852866 | 15° C | 47% | 1016.6 hPa | 0 mm | - | - | - |
| 1777851956 | 15° C | 47% | 1016.5 hPa | 0 mm | - | - | - |
| 1777851055 | 15.56° C | 47% | 1016.4 hPa | 0 mm | - | - | - |
| 1777850154 | 15.56° C | 47% | 1016.7 hPa | 0 mm | - | - | - |
| 1777849261 | 15.56° C | 47% | 1017 hPa | 0 mm | - | - | - |
| 1777848358 | 15.56° C | 46% | 1017.5 hPa | 0 mm | - | - | - |
| 1777847448 | 16.11° C | 45% | 1017.7 hPa | 0 mm | - | - | - |
| 1777846558 | 16.67° C | 45% | 1018.1 hPa | 0 mm | - | - | - |
| 1777845646 | 16.67° C | 47% | 1018.1 hPa | 0 mm | - | - | - |
| 1777844745 | 16.67° C | 44% | 1018.3 hPa | 0 mm | - | - | - |
| 1777843846 | 15.56° C | 47% | 1018.4 hPa | 0 mm | - | - | - |
| 1777842943 | 15° C | 48% | 1018.6 hPa | 0 mm | - | - | - |
| 1777842041 | 14.44° C | 47% | 1018.9 hPa | 0 mm | - | - | - |
| 1777841138 | 15° C | 45% | 1019.5 hPa | 0 mm | - | - | - |
| 1777840239 | 15° C | 46% | 1019.9 hPa | 0 mm | - | - | - |
| 1777839337 | 15° C | 45% | 1019.7 hPa | 0 mm | - | - | - |
* Rain latest hour (hover to see other rain measurements)
** Current wind speed in m/s (hover to see current wind gust speed)